createdAt,value
2019-03-27T00:00:25.146Z,1.50
2019-03-27T00:02:55.541Z,1.50
2019-03-27T00:05:25.982Z,1.50
2019-03-27T00:07:56.383Z,1.40
2019-03-27T00:10:26.818Z,1.50
2019-03-27T00:12:57.787Z,1.50
2019-03-27T00:15:28.193Z,1.60
2019-03-27T00:17:58.594Z,1.40
2019-03-27T00:20:29.062Z,1.30
2019-03-27T00:22:59.476Z,1.20
2019-03-27T00:25:29.892Z,1.30
2019-03-27T00:28:00.310Z,1.30
2019-03-27T00:30:30.751Z,1.60
2019-03-27T00:33:01.142Z,1.70
2019-03-27T00:35:32.354Z,1.90
2019-03-27T00:38:03.035Z,2.00
2019-03-27T00:40:33.498Z,1.90
2019-03-27T00:43:03.938Z,1.80
2019-03-27T00:45:34.619Z,1.60
2019-03-27T00:48:05.031Z,1.60
2019-03-27T00:50:35.602Z,1.60
2019-03-27T00:53:06.006Z,1.60
2019-03-27T00:55:36.422Z,1.50
2019-03-27T00:58:06.843Z,1.30
2019-03-27T01:01:05.456Z,1.30
2019-03-27T01:03:35.970Z,1.20
2019-03-27T01:06:07.435Z,1.20
2019-03-27T01:08:38.856Z,1.10
2019-03-27T01:11:09.780Z,1.00
2019-03-27T01:13:40.765Z,0.90
2019-03-27T01:16:11.673Z,1.00
2019-03-27T01:18:42.974Z,1.00
2019-03-27T01:21:14.213Z,0.90
2019-03-27T01:23:44.571Z,0.90
2019-03-27T01:26:15.243Z,1.00
2019-03-27T01:28:45.867Z,0.90
2019-03-27T01:31:16.635Z,0.90
2019-03-27T01:33:47.042Z,0.80
2019-03-27T01:36:18.338Z,0.70
2019-03-27T01:38:49.278Z,0.60
2019-03-27T01:41:20.572Z,0.60
2019-03-27T01:43:51.793Z,0.70
2019-03-27T01:46:23.069Z,0.70
2019-03-27T01:48:54.006Z,0.80
2019-03-27T01:51:26.714Z,0.70
2019-03-27T01:53:57.213Z,0.60
2019-03-27T01:56:27.629Z,0.40
2019-03-27T01:58:58.598Z,0.40
2019-03-27T02:01:29.302Z,0.40
2019-03-27T02:03:59.999Z,0.40
2019-03-27T02:06:31.181Z,0.50
2019-03-27T02:09:04.355Z,0.50
2019-03-27T02:11:35.566Z,0.50
2019-03-27T02:14:24.810Z,0.40
2019-03-27T02:16:55.478Z,0.50
2019-03-27T02:19:26.229Z,0.60
2019-03-27T02:21:57.510Z,0.50
2019-03-27T02:24:28.182Z,0.60
2019-03-27T02:26:59.249Z,0.70
2019-03-27T02:29:30.228Z,0.70
2019-03-27T02:32:00.898Z,0.60
2019-03-27T02:34:31.569Z,0.40
2019-03-27T02:37:03.083Z,0.30
2019-03-27T02:39:33.756Z,0.30
2019-03-27T02:42:04.415Z,0.10
2019-03-27T02:44:35.215Z,0.10
2019-03-27T02:47:05.907Z,0.10
2019-03-27T02:49:36.532Z,0.10
2019-03-27T02:52:07.102Z,0.20
2019-03-27T02:54:37.659Z,0.30
2019-03-27T02:57:08.300Z,0.30
2019-03-27T02:59:40.958Z,0.50
2019-03-27T03:02:11.506Z,0.60
2019-03-27T03:04:42.447Z,0.50
2019-03-27T03:07:13.687Z,0.50
2019-03-27T03:09:43.968Z,0.60
2019-03-27T03:12:14.625Z,0.80
2019-03-27T03:14:46.031Z,0.70
2019-03-27T03:17:16.682Z,0.80
2019-03-27T03:19:47.078Z,0.90
2019-03-27T03:22:17.709Z,0.90
2019-03-27T03:24:48.691Z,0.70
2019-03-27T03:27:20.705Z,0.70
2019-03-27T03:29:51.331Z,0.80
2019-03-27T03:32:22.087Z,0.70
2019-03-27T03:34:52.908Z,0.70
2019-03-27T03:37:26.579Z,0.70
2019-03-27T03:39:57.287Z,0.60
2019-03-27T03:42:28.276Z,0.70
2019-03-27T03:44:59.180Z,0.60
2019-03-27T03:47:30.043Z,0.70
2019-03-27T03:50:00.675Z,0.70
2019-03-27T03:52:31.829Z,0.70
2019-03-27T03:55:02.871Z,1.00
2019-03-27T03:57:34.641Z,1.10
2019-03-27T04:00:05.862Z,1.30
2019-03-27T04:02:39.146Z,1.40
2019-03-27T04:05:11.389Z,1.60
2019-03-27T04:07:41.927Z,1.60
2019-03-27T04:10:12.385Z,1.50
2019-03-27T04:12:43.317Z,1.40
2019-03-27T04:15:13.745Z,1.20
2019-03-27T04:17:44.355Z,1.00
2019-03-27T04:20:15.235Z,0.80
2019-03-27T04:22:45.727Z,0.90
2019-03-27T04:25:16.686Z,0.70
2019-03-27T04:27:47.585Z,0.70
2019-03-27T04:30:18.235Z,0.60
2019-03-27T04:32:49.080Z,0.80
2019-03-27T04:35:19.511Z,1.00
2019-03-27T04:37:50.415Z,1.10
2019-03-27T04:40:21.290Z,1.10
2019-03-27T04:42:52.612Z,1.20
2019-03-27T04:45:25.731Z,1.10
2019-03-27T04:47:56.450Z,0.90
2019-03-27T04:50:27.333Z,1.20
2019-03-27T04:52:58.561Z,1.30
2019-03-27T04:55:29.206Z,1.20
2019-03-27T04:57:59.870Z,1.20
2019-03-27T05:00:30.282Z,1.20
2019-03-27T05:03:01.179Z,1.20
2019-03-27T05:05:31.704Z,1.10
2019-03-27T05:08:02.998Z,0.90
2019-03-27T05:10:33.789Z,0.80
2019-03-27T05:13:04.095Z,0.70
2019-03-27T05:15:34.387Z,0.70
2019-03-27T05:18:05.039Z,0.70
2019-03-27T05:20:35.970Z,0.60
2019-03-27T05:23:06.918Z,0.60
2019-03-27T05:25:37.283Z,0.70
2019-03-27T05:28:09.099Z,0.60
2019-03-27T05:30:39.995Z,0.50
2019-03-27T05:33:10.847Z,0.40
2019-03-27T05:35:41.506Z,0.40
2019-03-27T05:38:12.730Z,0.40
2019-03-27T05:40:43.884Z,0.30
2019-03-27T05:43:15.111Z,0.20
2019-03-27T05:45:45.911Z,0.30
2019-03-27T05:48:16.794Z,0.30
2019-03-27T05:50:47.745Z,0.30
2019-03-27T05:53:18.051Z,0.40
2019-03-27T05:55:48.691Z,0.40
2019-03-27T05:58:19.082Z,0.60
2019-03-27T06:00:49.467Z,0.80
2019-03-27T06:03:21.970Z,1.40
2019-03-27T06:05:52.301Z,1.60
2019-03-27T06:08:22.588Z,1.60
2019-03-27T06:10:52.912Z,1.60
2019-03-27T06:13:23.218Z,1.80
2019-03-27T06:15:53.767Z,1.80
2019-03-27T06:18:24.782Z,1.80
2019-03-27T06:20:55.928Z,1.70
2019-03-27T06:23:26.687Z,1.90
2019-03-27T06:25:57.151Z,2.00
2019-03-27T06:28:28.084Z,1.90
2019-03-27T06:30:58.478Z,2.10
2019-03-27T06:33:28.895Z,2.10
2019-03-27T06:36:00.103Z,2.20
2019-03-27T06:38:30.799Z,2.30
2019-03-27T06:41:01.821Z,2.30
2019-03-27T06:43:32.927Z,2.30
2019-03-27T06:46:04.161Z,2.30
2019-03-27T06:48:35.248Z,2.40
2019-03-27T06:51:06.232Z,2.50
2019-03-27T06:53:36.791Z,2.50
2019-03-27T06:56:07.510Z,2.60
2019-03-27T06:58:38.256Z,2.80
2019-03-27T07:01:08.940Z,2.90
2019-03-27T07:03:39.578Z,2.90
2019-03-27T07:06:09.983Z,3.10
2019-03-27T07:08:40.994Z,3.40
2019-03-27T07:11:11.844Z,3.50
2019-03-27T07:13:42.225Z,3.80
2019-03-27T07:16:12.654Z,3.90
2019-03-27T07:18:43.687Z,3.90
2019-03-27T07:21:14.642Z,4.20
2019-03-27T07:23:45.481Z,4.40
2019-03-27T07:26:16.091Z,4.50
2019-03-27T07:28:46.544Z,4.70
2019-03-27T07:31:16.952Z,4.80
2019-03-27T07:33:47.423Z,4.90
2019-03-27T07:36:17.741Z,5.10
2019-03-27T07:38:48.123Z,5.50
2019-03-27T07:41:18.537Z,5.80
2019-03-27T07:43:48.963Z,5.90
2019-03-27T07:46:19.379Z,5.90
2019-03-27T07:48:54.034Z,6.00
2019-03-27T07:51:21.908Z,6.10
2019-03-27T07:53:52.310Z,6.30
2019-03-27T07:56:22.707Z,6.30
2019-03-27T07:58:53.165Z,6.40
2019-03-27T08:01:26.798Z,6.50
2019-03-27T08:03:57.216Z,6.50
2019-03-27T08:06:27.953Z,6.50
2019-03-27T08:08:58.438Z,6.50
2019-03-27T08:11:31.577Z,6.50
2019-03-27T08:14:02.349Z,6.40
2019-03-27T08:16:33.103Z,6.30
2019-03-27T08:19:07.923Z,6.20
2019-03-27T08:21:36.102Z,6.30
2019-03-27T08:24:06.538Z,6.50
2019-03-27T08:26:37.039Z,6.50
2019-03-27T08:29:07.499Z,6.60
2019-03-27T08:31:38.002Z,6.70
2019-03-27T08:34:08.489Z,6.80
2019-03-27T08:36:38.948Z,6.90
2019-03-27T08:39:09.582Z,7.00
2019-03-27T08:41:40.484Z,7.30
2019-03-27T08:44:11.260Z,7.50
2019-03-27T08:46:42.487Z,7.70
2019-03-27T08:49:21.746Z,7.90
2019-03-27T08:51:46.702Z,8.00
2019-03-27T08:54:17.046Z,8.30
2019-03-27T08:56:47.525Z,8.40
2019-03-27T08:59:18.499Z,8.20
2019-03-27T09:01:49.296Z,8.00
2019-03-27T09:04:19.933Z,7.90
2019-03-27T09:06:50.514Z,8.00
2019-03-27T09:09:21.236Z,8.30
2019-03-27T09:11:52.217Z,8.50
2019-03-27T09:14:22.887Z,8.90
2019-03-27T09:16:53.575Z,9.10
2019-03-27T09:19:34.871Z,9.20
2019-03-27T09:21:57.240Z,9.10
2019-03-27T09:24:27.641Z,8.90
2019-03-27T09:26:58.648Z,8.70
2019-03-27T09:29:29.086Z,9.00
2019-03-27T09:31:59.791Z,9.30
2019-03-27T09:34:30.197Z,10.00
2019-03-27T09:37:01.719Z,10.70
2019-03-27T09:39:32.424Z,11.20
2019-03-27T09:42:03.145Z,11.30
2019-03-27T09:44:34.582Z,11.60
2019-03-27T09:47:05.454Z,12.20
2019-03-27T09:49:48.959Z,12.40
2019-03-27T09:52:08.959Z,12.50
2019-03-27T09:54:39.674Z,12.40
2019-03-27T09:57:10.462Z,13.20
2019-03-27T09:59:41.811Z,13.20
2019-03-27T10:02:12.881Z,13.20
2019-03-27T10:04:43.283Z,13.10
2019-03-27T10:07:14.244Z,12.90
2019-03-27T10:09:44.734Z,12.80
2019-03-27T10:12:16.144Z,13.30
2019-03-27T10:14:47.670Z,12.30
2019-03-27T10:17:18.931Z,11.30
2019-03-27T10:20:02.885Z,11.80
2019-03-27T10:22:22.367Z,10.80
2019-03-27T10:24:52.827Z,11.50
2019-03-27T10:27:25.299Z,11.80
2019-03-27T10:29:55.683Z,12.30
2019-03-27T10:32:26.039Z,12.70
2019-03-27T10:34:56.504Z,13.10
2019-03-27T10:37:26.951Z,13.00
2019-03-27T10:39:58.047Z,12.10
2019-03-27T10:42:29.027Z,10.60
2019-03-27T10:45:00.405Z,10.80
2019-03-27T10:47:31.135Z,10.90
2019-03-27T10:50:02.273Z,11.10
2019-03-27T10:52:33.220Z,12.00
2019-03-27T10:55:04.013Z,12.00
2019-03-27T10:57:34.536Z,11.70
2019-03-27T11:00:05.575Z,12.00
2019-03-27T11:02:36.628Z,12.20
2019-03-27T11:05:07.778Z,12.10
2019-03-27T11:07:57.751Z,12.10
2019-03-27T11:10:28.421Z,11.00
2019-03-27T11:13:01.223Z,11.10
2019-03-27T11:15:32.233Z,11.80
2019-03-27T11:18:02.982Z,12.30
2019-03-27T11:20:33.674Z,12.60
2019-03-27T11:23:23.408Z,12.80
2019-03-27T11:25:54.434Z,12.60
2019-03-27T11:28:25.528Z,12.20
2019-03-27T11:30:56.724Z,12.80
2019-03-27T11:33:28.881Z,13.20
2019-03-27T11:36:00.355Z,13.60
2019-03-27T11:38:37.745Z,14.20
2019-03-27T11:41:11.969Z,12.50
2019-03-27T11:43:54.124Z,13.50
2019-03-27T11:46:13.690Z,13.30
2019-03-27T11:48:44.091Z,13.70
2019-03-27T11:51:14.763Z,15.80
2019-03-27T11:53:46.546Z,17.10
2019-03-27T11:56:17.248Z,16.70
2019-03-27T11:58:48.502Z,16.30
2019-03-27T12:01:18.919Z,15.60
2019-03-27T12:03:49.703Z,15.30
2019-03-27T12:06:21.105Z,15.20
2019-03-27T12:08:51.848Z,15.00
2019-03-27T12:11:25.459Z,14.60
2019-03-27T12:13:58.344Z,14.40
2019-03-27T12:16:29.061Z,13.70
2019-03-27T12:18:59.404Z,13.20
2019-03-27T12:21:30.102Z,13.40
2019-03-27T12:24:02.352Z,13.40
2019-03-27T12:26:33.107Z,13.10
2019-03-27T12:29:07.334Z,13.20
2019-03-27T12:31:37.718Z,12.90
2019-03-27T12:34:11.407Z,12.70
2019-03-27T12:36:41.831Z,13.00
2019-03-27T12:39:12.273Z,13.30
2019-03-27T12:41:42.967Z,13.20
2019-03-27T12:44:13.687Z,13.20
2019-03-27T12:46:44.063Z,13.30
2019-03-27T12:49:14.502Z,13.20
2019-03-27T12:51:44.930Z,13.30
2019-03-27T12:54:15.375Z,13.80
2019-03-27T12:56:46.154Z,14.00
2019-03-27T12:59:16.839Z,14.10
2019-03-27T13:01:47.507Z,14.20
2019-03-27T13:04:18.517Z,14.00
2019-03-27T13:06:49.239Z,13.50
2019-03-27T13:12:28.473Z,13.30
2019-03-27T13:14:58.986Z,13.00
2019-03-27T13:17:29.467Z,13.00
2019-03-27T13:19:59.970Z,12.70
2019-03-27T13:22:30.277Z,12.40
2019-03-27T13:25:00.700Z,12.50
2019-03-27T13:27:31.098Z,12.60
2019-03-27T13:30:01.476Z,12.70
2019-03-27T13:32:31.859Z,12.60
2019-03-27T13:35:02.227Z,12.30
2019-03-27T13:37:32.887Z,12.00
2019-03-27T13:40:03.325Z,12.20
2019-03-27T13:42:33.836Z,12.00
2019-03-27T13:45:05.026Z,12.10
2019-03-27T13:47:37.684Z,12.00
2019-03-27T13:50:12.767Z,12.00
2019-03-27T13:52:42.368Z,12.30
2019-03-27T13:55:15.087Z,12.60
2019-03-27T13:57:46.158Z,12.50
2019-03-27T14:00:17.399Z,12.50
2019-03-27T14:02:48.403Z,12.80
2019-03-27T14:05:21.931Z,12.80
2019-03-27T14:07:52.430Z,12.40
2019-03-27T14:10:22.867Z,12.30
2019-03-27T14:12:53.379Z,12.50
2019-03-27T14:15:24.967Z,12.60
2019-03-27T14:17:55.362Z,12.80
2019-03-27T14:20:28.435Z,12.80
2019-03-27T14:22:59.020Z,12.70
2019-03-27T14:25:29.446Z,12.90
2019-03-27T14:27:59.886Z,13.00
2019-03-27T14:30:57.286Z,13.00
2019-03-27T14:33:27.993Z,12.70
2019-03-27T14:35:58.467Z,12.60
2019-03-27T14:38:29.447Z,12.80
2019-03-27T14:41:00.239Z,12.90
2019-03-27T14:46:20.875Z,12.60
2019-03-27T14:48:51.291Z,12.50
2019-03-27T14:51:22.327Z,12.60
2019-03-27T14:53:52.946Z,12.40
2019-03-27T14:56:23.710Z,12.30
2019-03-27T14:58:54.880Z,12.40
2019-03-27T15:01:25.640Z,12.40
2019-03-27T15:03:56.074Z,12.40
2019-03-27T15:06:26.575Z,12.30
2019-03-27T15:08:57.546Z,12.10
2019-03-27T15:11:28.415Z,12.10
2019-03-27T15:13:59.077Z,12.00
2019-03-27T15:16:29.522Z,11.90
2019-03-27T15:19:00.175Z,11.70
2019-03-27T15:21:34.595Z,11.70
2019-03-27T15:24:07.322Z,11.80
2019-03-27T15:26:37.637Z,11.90
2019-03-27T15:29:08.300Z,12.10
2019-03-27T15:31:39.212Z,12.30
2019-03-27T15:34:11.424Z,12.30
2019-03-27T15:36:41.902Z,12.30
2019-03-27T15:39:12.372Z,12.30
2019-03-27T15:41:42.932Z,12.10
2019-03-27T15:44:14.124Z,12.10
2019-03-27T15:46:47.153Z,12.00
2019-03-27T15:49:18.146Z,12.10
2019-03-27T15:51:49.221Z,11.90
2019-03-27T15:54:20.854Z,11.80
2019-03-27T15:56:51.347Z,11.70
2019-03-27T15:59:24.528Z,11.60
2019-03-27T16:01:57.720Z,11.50
2019-03-27T16:04:27.502Z,11.40
2019-03-27T16:06:57.891Z,11.40
2019-03-27T16:09:47.743Z,11.30
2019-03-27T16:12:18.863Z,11.40
2019-03-27T16:14:49.537Z,11.40
2019-03-27T16:17:19.956Z,11.30
2019-03-27T16:19:50.729Z,11.40
2019-03-27T16:22:21.278Z,11.40
2019-03-27T16:24:53.730Z,11.40
2019-03-27T16:27:24.235Z,11.40
2019-03-27T16:29:54.690Z,11.40
2019-03-27T16:32:25.265Z,11.30
2019-03-27T16:34:55.724Z,11.30
2019-03-27T16:37:26.182Z,11.20
2019-03-27T16:39:56.569Z,11.10
2019-03-27T16:42:30.054Z,11.00
2019-03-27T16:45:01.049Z,10.90
2019-03-27T16:47:31.766Z,10.90
2019-03-27T16:50:02.401Z,10.70
2019-03-27T16:52:32.876Z,10.70
2019-03-27T16:55:03.571Z,10.80
2019-03-27T16:57:34.158Z,10.80
2019-03-27T17:00:05.264Z,10.70
2019-03-27T17:02:37.816Z,10.70
2019-03-27T17:05:08.230Z,10.80
2019-03-27T17:07:38.709Z,10.70
2019-03-27T17:10:09.431Z,10.60
2019-03-27T17:12:40.745Z,10.50
2019-03-27T17:15:11.990Z,10.40
2019-03-27T17:17:43.000Z,10.40
2019-03-27T17:20:14.490Z,10.40
2019-03-27T17:22:44.976Z,10.30
2019-03-27T17:25:15.472Z,10.20
2019-03-27T17:27:47.606Z,10.10
2019-03-27T17:30:18.481Z,10.00
2019-03-27T17:35:40.322Z,9.90
2019-03-27T17:38:11.520Z,9.90
2019-03-27T17:40:42.256Z,9.80
2019-03-27T17:43:12.658Z,9.70
2019-03-27T17:45:43.055Z,9.70
2019-03-27T17:48:14.228Z,9.60
2019-03-27T17:50:44.988Z,9.40
2019-03-27T17:53:30.742Z,9.30
2019-03-27T17:58:40.164Z,9.10
2019-03-27T18:01:10.658Z,8.90
2019-03-27T18:03:41.056Z,8.80
2019-03-27T18:06:11.424Z,8.70
2019-03-27T18:08:42.403Z,8.50
2019-03-27T18:11:12.767Z,8.40
2019-03-27T18:13:43.752Z,8.30
2019-03-27T18:16:17.175Z,8.20
2019-03-27T18:18:46.726Z,8.10
2019-03-27T18:21:21.195Z,8.00
2019-03-27T18:23:49.914Z,7.90
2019-03-27T18:26:20.563Z,7.80
2019-03-27T18:28:52.263Z,7.90
2019-03-27T18:31:23.167Z,8.00
2019-03-27T18:33:53.476Z,7.90
2019-03-27T18:36:23.708Z,7.90
2019-03-27T18:38:54.115Z,7.90
2019-03-27T18:41:24.511Z,7.90
2019-03-27T18:43:55.007Z,7.80
2019-03-27T18:46:25.395Z,7.80
2019-03-27T18:48:55.726Z,7.60
2019-03-27T18:51:26.098Z,7.40
2019-03-27T18:53:59.926Z,7.30
2019-03-27T18:56:28.645Z,7.40
2019-03-27T18:58:59.016Z,7.30
2019-03-27T19:01:29.393Z,7.20
2019-03-27T19:03:59.766Z,7.20
2019-03-27T19:06:32.914Z,7.20
2019-03-27T19:09:04.247Z,7.10
2019-03-27T19:11:34.625Z,7.10
2019-03-27T19:14:05.031Z,7.20
2019-03-27T19:16:35.542Z,7.20
2019-03-27T19:19:05.988Z,7.30
2019-03-27T19:21:36.372Z,7.30
2019-03-27T19:24:14.751Z,7.20
2019-03-27T19:26:38.877Z,7.10
2019-03-27T19:29:09.186Z,7.10
2019-03-27T19:31:39.562Z,7.00
2019-03-27T19:34:09.950Z,6.90
2019-03-27T19:36:40.490Z,6.80
2019-03-27T19:39:10.970Z,6.80
2019-03-27T19:41:41.992Z,6.80
2019-03-27T19:44:12.739Z,6.80
2019-03-27T19:46:43.490Z,6.70
2019-03-27T19:49:14.055Z,6.70
2019-03-27T19:51:44.883Z,6.70
2019-03-27T19:54:26.571Z,6.60
2019-03-27T19:56:47.562Z,6.50
2019-03-27T19:59:17.996Z,6.40
2019-03-27T20:01:48.366Z,6.30
2019-03-27T20:04:18.705Z,6.20
2019-03-27T20:06:49.058Z,6.10
2019-03-27T20:09:19.432Z,5.90
2019-03-27T20:11:50.227Z,5.90
2019-03-27T20:14:21.121Z,5.80
2019-03-27T20:16:51.482Z,5.70
2019-03-27T20:19:21.819Z,5.70
2019-03-27T20:21:52.197Z,5.50
2019-03-27T20:24:22.556Z,5.40
2019-03-27T20:26:52.956Z,5.30
2019-03-27T20:29:23.394Z,5.10
2019-03-27T20:31:53.820Z,5.00
2019-03-27T20:34:24.212Z,4.90
2019-03-27T20:36:54.752Z,4.80
2019-03-27T20:39:25.103Z,4.80
2019-03-27T20:41:55.659Z,4.60
2019-03-27T20:44:26.032Z,4.60
2019-03-27T20:46:56.432Z,4.60
2019-03-27T20:49:27.277Z,4.40
2019-03-27T20:51:58.064Z,4.30
2019-03-27T20:54:29.199Z,4.30
2019-03-27T20:57:00.176Z,4.40
2019-03-27T20:59:31.025Z,4.30
2019-03-27T21:02:01.390Z,4.20
2019-03-27T21:04:32.318Z,4.30
2019-03-27T21:07:03.160Z,4.30
2019-03-27T21:09:34.107Z,4.30
2019-03-27T21:12:05.159Z,4.20
2019-03-27T21:14:35.764Z,4.10
2019-03-27T21:17:06.443Z,4.10
2019-03-27T21:19:37.013Z,4.00
2019-03-27T21:22:08.019Z,4.00
2019-03-27T21:24:38.588Z,4.10
2019-03-27T21:27:08.862Z,4.00
2019-03-27T21:29:40.242Z,3.80
2019-03-27T21:32:10.841Z,3.80
2019-03-27T21:34:41.508Z,3.60
2019-03-27T21:37:11.975Z,3.50
2019-03-27T21:39:43.391Z,3.60
2019-03-27T21:42:13.879Z,3.60
2019-03-27T21:44:44.147Z,3.60
2019-03-27T21:47:14.532Z,3.60
2019-03-27T21:49:44.733Z,3.50
2019-03-27T21:52:15.289Z,3.60
2019-03-27T21:54:46.181Z,3.60
2019-03-27T21:57:17.086Z,3.60
2019-03-27T21:59:47.841Z,3.50
2019-03-27T22:02:18.793Z,3.40
2019-03-27T22:04:49.700Z,3.30
2019-03-27T22:07:20.745Z,3.20
2019-03-27T22:09:51.098Z,3.10
2019-03-27T22:12:21.973Z,3.00
2019-03-27T22:14:52.586Z,2.90
2019-03-27T22:17:23.131Z,2.90
2019-03-27T22:19:53.826Z,2.80
2019-03-27T22:22:25.458Z,2.80
2019-03-27T22:24:56.293Z,2.90
2019-03-27T22:27:27.327Z,2.80
2019-03-27T22:29:59.306Z,2.80
2019-03-27T22:32:29.631Z,2.80
2019-03-27T22:35:00.478Z,2.80
2019-03-27T22:37:31.587Z,2.80
2019-03-27T22:40:02.239Z,2.70
2019-03-27T22:42:32.723Z,2.70
2019-03-27T22:45:03.358Z,2.60
2019-03-27T22:47:33.927Z,2.50
2019-03-27T22:50:07.750Z,2.40
2019-03-27T22:52:36.441Z,2.40
2019-03-27T22:55:06.931Z,2.40
2019-03-27T22:57:37.683Z,2.40
2019-03-27T23:00:10.150Z,2.40
2019-03-27T23:02:40.635Z,2.30
2019-03-27T23:05:11.148Z,2.30
2019-03-27T23:07:41.664Z,2.20
2019-03-27T23:10:12.160Z,2.20
2019-03-27T23:12:42.683Z,2.10
2019-03-27T23:15:13.256Z,2.10
2019-03-27T23:17:43.654Z,2.00
2019-03-27T23:20:14.029Z,2.10
2019-03-27T23:22:44.515Z,2.10
2019-03-27T23:25:14.937Z,2.10
2019-03-27T23:27:45.389Z,2.10
2019-03-27T23:30:15.939Z,2.10
2019-03-27T23:32:46.361Z,2.10
2019-03-27T23:35:16.810Z,2.00
2019-03-27T23:37:47.220Z,1.90
2019-03-27T23:40:17.607Z,1.80
2019-03-27T23:42:48.045Z,1.80
2019-03-27T23:45:18.468Z,1.70
2019-03-27T23:47:48.875Z,1.70
2019-03-27T23:50:19.247Z,1.70
2019-03-27T23:52:50.127Z,1.70
2019-03-27T23:55:20.419Z,1.80
2019-03-27T23:57:50.978Z,1.60
